createdAt,value
2022-12-28T00:02:15.389Z,101320.66
2022-12-28T00:04:44.693Z,101317.00
2022-12-28T00:07:12.610Z,101315.88
2022-12-28T00:09:40.439Z,101313.94
2022-12-28T00:12:08.441Z,101303.34
2022-12-28T00:14:36.463Z,101292.31
2022-12-28T00:17:04.541Z,101277.88
2022-12-28T00:19:32.406Z,101277.25
2022-12-28T00:22:01.697Z,101274.81
2022-12-28T00:24:29.722Z,101279.09
2022-12-28T00:26:58.129Z,101268.94
2022-12-28T00:29:26.075Z,101264.97
2022-12-28T00:31:53.996Z,101262.03
2022-12-28T00:34:25.702Z,101254.66
2022-12-28T00:37:08.924Z,101247.19
2022-12-28T00:39:43.087Z,101244.47
2022-12-28T00:42:11.553Z,101238.06
2022-12-28T00:44:39.551Z,101229.59
2022-12-28T00:47:07.705Z,101214.97
2022-12-28T00:49:35.576Z,101206.63
2022-12-28T00:52:03.467Z,101196.31
2022-12-28T00:54:31.340Z,101186.56
2022-12-28T00:57:00.532Z,101171.97
2022-12-28T00:59:28.510Z,101168.31
2022-12-28T01:01:56.498Z,101169.56
2022-12-28T01:04:24.546Z,101156.00
2022-12-28T01:06:52.369Z,101152.72
2022-12-28T01:09:20.299Z,101146.69
2022-12-28T01:11:48.217Z,101148.69
2022-12-28T01:14:17.510Z,101119.47
2022-12-28T01:16:47.749Z,101128.97
2022-12-28T01:19:20.479Z,101107.91
2022-12-28T01:21:49.501Z,101110.13
2022-12-28T01:24:17.884Z,101106.75
2022-12-28T01:26:45.932Z,101094.94
2022-12-28T01:29:14.349Z,101109.34
2022-12-28T01:31:43.911Z,101077.63
2022-12-28T01:34:13.852Z,101078.59
2022-12-28T01:36:41.723Z,101072.41
2022-12-28T01:39:09.736Z,101084.25
2022-12-28T01:41:40.473Z,101068.38
2022-12-28T01:44:38.425Z,101059.53
2022-12-28T01:47:11.710Z,101050.59
2022-12-28T01:49:43.898Z,101065.78
2022-12-28T01:52:17.306Z,101075.28
2022-12-28T01:54:47.879Z,101074.88
2022-12-28T01:57:16.878Z,101062.72
2022-12-28T01:59:50.882Z,101052.78
2022-12-28T02:02:23.457Z,101047.78
2022-12-28T02:04:54.511Z,101047.06
2022-12-28T02:07:36.888Z,101048.03
2022-12-28T02:10:43.136Z,101047.59
2022-12-28T02:12:56.890Z,101023.34
2022-12-28T02:15:24.891Z,101025.75
2022-12-28T02:17:54.488Z,101019.31
2022-12-28T02:20:24.705Z,101008.09
2022-12-28T02:23:13.888Z,101012.31
2022-12-28T02:26:08.596Z,101002.44
2022-12-28T02:29:27.580Z,101007.84
2022-12-28T02:32:04.853Z,101001.84
2022-12-28T02:34:38.764Z,100973.69
2022-12-28T02:37:11.809Z,100974.81
2022-12-28T02:39:45.275Z,100954.84
2022-12-28T02:42:14.924Z,100951.44
2022-12-28T02:45:01.973Z,100953.28
2022-12-28T02:47:47.446Z,100945.00
2022-12-28T02:50:17.235Z,100936.63
2022-12-28T02:53:03.711Z,100920.03
2022-12-28T02:56:05.097Z,100911.59
2022-12-28T02:59:15.557Z,100925.22
2022-12-28T03:02:00.704Z,100895.63
2022-12-28T03:04:39.186Z,100914.56
2022-12-28T03:07:29.279Z,100897.94
2022-12-28T03:10:11.332Z,100892.47
2022-12-28T03:12:46.418Z,100886.16
2022-12-28T03:15:29.323Z,100928.94
2022-12-28T03:18:24.337Z,100890.31
2022-12-28T03:21:13.763Z,100882.19
2022-12-28T03:24:01.793Z,100890.31
2022-12-28T03:26:51.904Z,100895.31
2022-12-28T03:29:41.486Z,100886.66
2022-12-28T03:32:10.139Z,100881.94
2022-12-28T03:34:39.931Z,100874.28
2022-12-28T03:37:14.575Z,100863.50
2022-12-28T03:39:51.739Z,100867.50
2022-12-28T03:42:44.996Z,100857.28
2022-12-28T03:45:44.277Z,100845.31
2022-12-28T03:48:08.774Z,100856.16
2022-12-28T03:50:41.664Z,100828.53
2022-12-28T03:53:10.769Z,100827.00
2022-12-28T03:55:40.726Z,100831.66
2022-12-28T03:58:08.991Z,100836.63
2022-12-28T04:00:38.892Z,100826.84
2022-12-28T04:03:08.725Z,100816.50
2022-12-28T04:05:38.009Z,100810.38
2022-12-28T04:08:06.059Z,100818.78
2022-12-28T04:10:34.936Z,100817.91
2022-12-28T04:13:02.863Z,100802.66
2022-12-28T04:15:58.939Z,100796.75
2022-12-28T04:18:27.881Z,100819.25
2022-12-28T04:20:57.111Z,100819.19
2022-12-28T04:23:26.039Z,100802.81
2022-12-28T04:26:07.941Z,100780.91
2022-12-28T04:28:36.602Z,100798.81
2022-12-28T04:31:36.966Z,100771.63
2022-12-28T04:34:08.227Z,100794.44
2022-12-28T04:36:42.622Z,100786.16
2022-12-28T04:39:15.087Z,100783.78
2022-12-28T04:41:42.918Z,100789.19
2022-12-28T04:44:10.820Z,100777.38
2022-12-28T04:46:38.854Z,100781.22
2022-12-28T04:49:06.757Z,100780.06
2022-12-28T04:51:35.320Z,100764.41
2022-12-28T04:54:04.737Z,100770.38
2022-12-28T04:56:32.696Z,100763.84
2022-12-28T04:59:01.963Z,100745.34
2022-12-28T05:01:30.073Z,100751.44
2022-12-28T05:03:59.809Z,100748.03
2022-12-28T05:06:28.290Z,100752.75
2022-12-28T05:08:56.437Z,100757.31
2022-12-28T05:11:27.588Z,100749.44
2022-12-28T05:13:55.619Z,100747.75
2022-12-28T05:16:26.724Z,100767.13
2022-12-28T05:18:56.260Z,100744.91
2022-12-28T05:21:26.498Z,100760.00
2022-12-28T05:23:55.109Z,100749.31
2022-12-28T05:26:26.136Z,100748.75
2022-12-28T05:28:54.244Z,100749.31
2022-12-28T05:31:23.712Z,100747.63
2022-12-28T05:33:51.764Z,100750.19
2022-12-28T05:36:22.118Z,100734.75
2022-12-28T05:38:50.614Z,100753.59
2022-12-28T05:41:20.685Z,100746.44
2022-12-28T05:43:50.736Z,100745.59
2022-12-28T05:46:20.817Z,100741.56
2022-12-28T05:48:49.312Z,100743.59
2022-12-28T05:51:19.359Z,100733.47
2022-12-28T05:53:48.153Z,100733.88
2022-12-28T05:56:18.120Z,100724.34
2022-12-28T05:58:48.319Z,100723.47
2022-12-28T06:01:18.884Z,100730.31
2022-12-28T06:03:48.942Z,100728.16
2022-12-28T06:06:19.270Z,100726.31
2022-12-28T06:08:48.877Z,100729.16
2022-12-28T06:11:18.471Z,100708.63
2022-12-28T06:13:46.472Z,100718.31
2022-12-28T06:16:16.338Z,100713.44
2022-12-28T06:18:46.513Z,100705.59
2022-12-28T06:21:16.162Z,100698.75
2022-12-28T06:23:44.865Z,100696.25
2022-12-28T06:26:14.294Z,100705.84
2022-12-28T06:28:43.339Z,100710.84
2022-12-28T06:31:13.733Z,100709.69
2022-12-28T06:33:41.923Z,100714.25
2022-12-28T06:36:19.851Z,100716.22
2022-12-28T06:38:49.113Z,100716.97
2022-12-28T06:41:18.796Z,100701.81
2022-12-28T06:43:47.861Z,100699.88
2022-12-28T06:46:17.058Z,100720.03
2022-12-28T06:48:45.297Z,100707.41
2022-12-28T06:51:17.259Z,100705.94
2022-12-28T06:53:46.009Z,100705.38
2022-12-28T06:56:16.160Z,100685.84
2022-12-28T06:58:44.871Z,100708.66
2022-12-28T07:01:15.671Z,100692.13
2022-12-28T07:03:44.198Z,100689.28
2022-12-28T07:06:15.674Z,100702.25
2022-12-28T07:08:44.488Z,100692.38
2022-12-28T07:11:14.073Z,100707.41
2022-12-28T07:13:42.491Z,100707.59
2022-12-28T07:16:13.567Z,100699.41
2022-12-28T07:18:42.146Z,100710.44
2022-12-28T07:21:14.688Z,100691.84
2022-12-28T07:23:43.248Z,100716.41
2022-12-28T07:26:12.825Z,100692.38
2022-12-28T07:28:42.637Z,100710.50
2022-12-28T07:31:12.881Z,100696.13
2022-12-28T07:33:41.312Z,100694.59
2022-12-28T07:36:12.805Z,100698.00
2022-12-28T07:38:42.421Z,100707.22
2022-12-28T07:41:12.134Z,100710.63
2022-12-28T07:43:40.884Z,100706.63
2022-12-28T07:46:12.296Z,100714.25
2022-12-28T07:48:41.640Z,100710.25
2022-12-28T07:51:13.027Z,100711.16
2022-12-28T07:53:43.592Z,100707.16
2022-12-28T07:56:12.087Z,100724.47
2022-12-28T08:01:08.583Z,100708.00
2022-12-28T08:03:37.434Z,100724.84
2022-12-28T08:06:07.576Z,100709.41
2022-12-28T08:08:36.493Z,100745.31
2022-12-28T08:11:07.670Z,100712.91
2022-12-28T08:13:37.908Z,100717.41
2022-12-28T08:16:07.061Z,100711.56
2022-12-28T08:18:35.546Z,100724.78
2022-12-28T08:21:05.400Z,100743.31
2022-12-28T08:23:33.888Z,100734.41
2022-12-28T08:26:09.545Z,100747.59
2022-12-28T08:28:38.261Z,100737.59
2022-12-28T08:31:07.899Z,100744.31
2022-12-28T08:33:36.306Z,100742.59
2022-12-28T08:36:04.869Z,100742.06
2022-12-28T08:38:33.045Z,100737.13
2022-12-28T08:41:03.321Z,100736.47
2022-12-28T08:43:33.741Z,100740.38
2022-12-28T08:46:03.001Z,100749.06
2022-12-28T08:48:31.180Z,100744.09
2022-12-28T08:51:03.130Z,100744.72
2022-12-28T08:53:31.344Z,100746.72
2022-12-28T08:56:06.786Z,100741.59
2022-12-28T08:58:36.611Z,100764.09
2022-12-28T09:01:09.439Z,100748.72
2022-12-28T09:03:38.450Z,100761.69
2022-12-28T09:06:07.970Z,100737.91
2022-12-28T09:08:35.979Z,100750.13
2022-12-28T09:11:05.682Z,100742.75
2022-12-28T09:13:34.915Z,100743.63
2022-12-28T09:16:07.080Z,100746.78
2022-12-28T09:18:35.631Z,100743.63
2022-12-28T09:21:08.078Z,100750.28
2022-12-28T09:23:36.967Z,100742.06
2022-12-28T09:26:06.805Z,100754.97
2022-12-28T09:28:35.869Z,100755.72
2022-12-28T09:31:06.739Z,100772.78
2022-12-28T09:34:32.152Z,100759.63
2022-12-28T09:36:42.989Z,100748.91
2022-12-28T09:39:13.742Z,100749.06
2022-12-28T09:41:48.271Z,100758.03
2022-12-28T09:44:38.266Z,100759.91
2022-12-28T09:47:17.512Z,100751.38
2022-12-28T09:49:53.808Z,100744.69
2022-12-28T09:52:29.476Z,100755.66
2022-12-28T09:55:05.184Z,100765.41
2022-12-28T09:57:39.142Z,100756.66
2022-12-28T10:00:15.748Z,100760.63
2022-12-28T10:02:49.251Z,100760.69
2022-12-28T10:05:17.865Z,100767.13
2022-12-28T10:07:46.061Z,100760.53
2022-12-28T10:12:48.373Z,100757.97
2022-12-28T10:15:17.613Z,100767.38
2022-12-28T10:17:46.992Z,100745.22
2022-12-28T10:20:18.121Z,100743.16
2022-12-28T10:22:50.479Z,100741.56
2022-12-28T10:25:21.225Z,100748.81
2022-12-28T10:27:49.654Z,100747.09
2022-12-28T10:30:20.823Z,100743.59
2022-12-28T10:32:56.726Z,100747.41
2022-12-28T10:35:31.051Z,100734.91
2022-12-28T10:38:04.937Z,100734.03
2022-12-28T10:40:35.352Z,100730.06
2022-12-28T10:43:10.449Z,100725.50
2022-12-28T10:45:42.057Z,100721.31
2022-12-28T10:48:16.488Z,100732.75
2022-12-28T10:50:51.364Z,100727.06
2022-12-28T10:53:25.683Z,100725.34
2022-12-28T10:56:03.401Z,100717.63
2022-12-28T10:58:33.446Z,100720.91
2022-12-28T11:01:06.890Z,100716.88
2022-12-28T11:03:37.947Z,100708.53
2022-12-28T11:06:15.269Z,100705.59
2022-12-28T11:08:45.078Z,100692.41
2022-12-28T11:11:22.337Z,100697.31
2022-12-28T11:13:56.414Z,100693.50
2022-12-28T11:16:24.855Z,100701.66
2022-12-28T11:18:54.837Z,100690.16
2022-12-28T11:21:23.500Z,100693.50
2022-12-28T11:23:52.969Z,100682.78
2022-12-28T11:26:22.068Z,100675.06
2022-12-28T11:28:52.855Z,100669.97
2022-12-28T11:31:26.077Z,100673.88
2022-12-28T11:33:59.537Z,100675.16
2022-12-28T11:36:29.144Z,100672.78
2022-12-28T11:38:58.442Z,100668.25
2022-12-28T11:42:02.812Z,100664.31
2022-12-28T11:44:51.969Z,100657.97
2022-12-28T11:47:36.832Z,100652.00
2022-12-28T11:50:51.446Z,100648.56
2022-12-28T11:53:44.738Z,100644.88
2022-12-28T11:56:15.415Z,100638.16
2022-12-28T11:59:01.211Z,100635.72
2022-12-28T12:01:44.316Z,100628.22
2022-12-28T12:04:36.911Z,100620.22
2022-12-28T12:07:43.518Z,100623.72
2022-12-28T12:10:35.622Z,100622.81
2022-12-28T12:13:44.187Z,100623.69
2022-12-28T12:16:30.122Z,100622.50
2022-12-28T12:19:00.075Z,100640.63
2022-12-28T12:21:33.199Z,100615.75
2022-12-28T12:24:06.894Z,100618.19
2022-12-28T12:26:39.296Z,100615.31
2022-12-28T12:29:16.849Z,100611.38
2022-12-28T12:31:47.948Z,100601.69
2022-12-28T12:34:23.246Z,100605.34
2022-12-28T12:37:20.891Z,100602.75
2022-12-28T12:40:17.069Z,100590.78
2022-12-28T12:43:01.706Z,100590.91
2022-12-28T12:45:40.760Z,100580.50
2022-12-28T12:48:29.883Z,100572.13
2022-12-28T12:51:27.192Z,100581.56
2022-12-28T12:54:19.596Z,100587.41
2022-12-28T12:56:54.581Z,100586.81
2022-12-28T12:59:41.149Z,100575.56
2022-12-28T13:02:43.332Z,100563.78
2022-12-28T13:05:17.441Z,100567.47
2022-12-28T13:07:45.588Z,100567.03
2022-12-28T13:10:19.203Z,100571.88
2022-12-28T13:12:47.145Z,100561.34
2022-12-28T13:15:18.385Z,100566.44
2022-12-28T13:18:43.106Z,100553.22
2022-12-28T13:20:54.966Z,100561.16
2022-12-28T13:23:24.379Z,100551.69
2022-12-28T13:25:55.077Z,100545.91
2022-12-28T13:28:25.043Z,100546.63
2022-12-28T13:31:02.297Z,100535.25
2022-12-28T13:33:31.966Z,100534.22
2022-12-28T13:36:14.495Z,100528.19
2022-12-28T13:38:42.672Z,100525.00
2022-12-28T13:41:21.333Z,100542.06
2022-12-28T13:44:14.929Z,100535.63
2022-12-28T13:46:46.713Z,100540.13
2022-12-28T13:49:16.067Z,100536.19
2022-12-28T13:51:48.432Z,100521.16
2022-12-28T13:54:24.361Z,100530.00
2022-12-28T13:57:14.350Z,100541.22
2022-12-28T13:59:43.470Z,100514.06
2022-12-28T14:02:17.207Z,100522.53
2022-12-28T14:04:52.782Z,100507.84
2022-12-28T14:07:25.246Z,100508.38
2022-12-28T14:09:54.071Z,100490.72
2022-12-28T14:12:22.835Z,100508.31
2022-12-28T14:14:52.298Z,100490.59
2022-12-28T14:17:21.346Z,100495.88
2022-12-28T14:19:51.890Z,100483.16
2022-12-28T14:22:29.933Z,100473.22
2022-12-28T14:25:09.737Z,100472.25
2022-12-28T14:27:40.885Z,100459.03
2022-12-28T14:30:22.172Z,100458.59
2022-12-28T14:32:51.025Z,100449.19
2022-12-28T14:35:22.859Z,100452.28
2022-12-28T14:37:53.817Z,100448.78
2022-12-28T14:40:28.485Z,100436.00
2022-12-28T14:42:57.534Z,100438.19
2022-12-28T14:46:05.891Z,100425.28
2022-12-28T14:48:34.729Z,100422.47
2022-12-28T14:51:06.536Z,100420.06
2022-12-28T14:53:35.023Z,100429.72
2022-12-28T14:56:11.052Z,100412.94
2022-12-28T14:58:51.173Z,100416.63
2022-12-28T15:01:21.739Z,100413.72
2022-12-28T15:03:52.106Z,100423.34
2022-12-28T15:06:22.043Z,100413.13
2022-12-28T15:08:51.059Z,100394.38
2022-12-28T15:11:19.829Z,100400.50
2022-12-28T15:13:48.480Z,100392.69
2022-12-28T15:16:18.460Z,100389.16
2022-12-28T15:18:46.879Z,100396.38
2022-12-28T15:21:17.552Z,100389.81
2022-12-28T15:23:49.635Z,100378.63
2022-12-28T15:26:17.701Z,100378.84
2022-12-28T15:28:45.778Z,100379.19
2022-12-28T15:31:16.970Z,100357.28
2022-12-28T15:33:45.381Z,100354.06
2022-12-28T15:36:17.605Z,100369.34
2022-12-28T15:38:47.637Z,100345.88
2022-12-28T15:41:34.175Z,100343.88
2022-12-28T15:44:02.279Z,100342.50
2022-12-28T15:46:30.453Z,100337.94
2022-12-28T15:48:58.362Z,100329.28
2022-12-28T15:51:26.362Z,100328.25
2022-12-28T15:53:55.766Z,100326.06
2022-12-28T15:56:26.073Z,100319.63
2022-12-28T15:58:55.231Z,100317.06
2022-12-28T16:01:23.813Z,100319.41
2022-12-28T16:03:52.602Z,100307.03
2022-12-28T16:06:21.236Z,100310.75
2022-12-28T16:08:49.560Z,100307.38
2022-12-28T16:11:21.228Z,100302.28
2022-12-28T16:13:51.855Z,100303.50
2022-12-28T16:16:20.706Z,100290.91
2022-12-28T16:18:49.952Z,100291.09
2022-12-28T16:21:18.004Z,100279.69
2022-12-28T16:23:46.715Z,100271.06
2022-12-28T16:26:15.151Z,100271.25
2022-12-28T16:28:45.087Z,100266.47
2022-12-28T16:31:22.708Z,100261.03
2022-12-28T16:33:53.852Z,100253.53
2022-12-28T16:36:22.614Z,100256.63
2022-12-28T16:38:52.036Z,100248.97
2022-12-28T16:41:21.616Z,100258.84
2022-12-28T16:43:51.921Z,100238.44
2022-12-28T16:46:20.225Z,100245.25
2022-12-28T16:48:48.178Z,100247.28
2022-12-28T16:51:16.495Z,100238.09
2022-12-28T16:53:44.594Z,100231.84
2022-12-28T16:56:12.668Z,100228.13
2022-12-28T16:58:43.966Z,100222.88
2022-12-28T17:01:15.442Z,100209.94
2022-12-28T17:03:43.871Z,100210.28
2022-12-28T17:06:12.144Z,100198.44
2022-12-28T17:08:40.113Z,100212.69
2022-12-28T17:11:09.452Z,100192.31
2022-12-28T17:13:37.904Z,100195.34
2022-12-28T17:16:07.094Z,100190.28
2022-12-28T17:18:36.734Z,100198.09
2022-12-28T17:21:07.454Z,100182.13
2022-12-28T17:23:35.466Z,100174.13
2022-12-28T17:26:03.732Z,100176.34
2022-12-28T17:28:31.725Z,100184.16
2022-12-28T17:31:07.792Z,100172.97
2022-12-28T17:33:39.969Z,100160.09
2022-12-28T17:36:08.791Z,100158.38
2022-12-28T17:38:37.042Z,100159.41
2022-12-28T17:41:08.563Z,100146.84
2022-12-28T17:43:36.542Z,100147.19
2022-12-28T17:46:04.998Z,100148.38
2022-12-28T17:48:32.896Z,100142.44
2022-12-28T17:51:10.654Z,100127.84
2022-12-28T17:53:39.699Z,100131.91
2022-12-28T17:56:10.256Z,100120.03
2022-12-28T17:58:38.451Z,100108.66
2022-12-28T18:01:06.958Z,100097.50
2022-12-28T18:03:35.888Z,100089.69
2022-12-28T18:06:05.955Z,100080.69
2022-12-28T18:08:34.570Z,100079.69
2022-12-28T18:11:03.211Z,100076.13
2022-12-28T18:13:31.239Z,100070.69
2022-12-28T18:15:59.507Z,100049.13
2022-12-28T18:18:27.532Z,100054.91
2022-12-28T18:20:59.864Z,100036.44
2022-12-28T18:23:29.886Z,100043.88
2022-12-28T18:26:05.321Z,100041.00
2022-12-28T18:28:34.102Z,100035.59
2022-12-28T18:31:03.467Z,100018.31
2022-12-28T18:33:31.920Z,100025.75
2022-12-28T18:36:00.423Z,100020.84
2022-12-28T18:38:30.070Z,100028.16
2022-12-28T18:40:59.793Z,100014.56
2022-12-28T18:43:28.125Z,100016.63
2022-12-28T18:45:57.497Z,100007.44
2022-12-28T18:48:26.214Z,100005.56
2022-12-28T18:50:55.900Z,100000.63
2022-12-28T18:53:24.975Z,100010.78
2022-12-28T18:56:01.997Z,99980.81
2022-12-28T18:58:32.284Z,99988.63
2022-12-28T19:01:03.175Z,99975.75
2022-12-28T19:03:31.343Z,99963.84
2022-12-28T19:06:02.815Z,99965.72
2022-12-28T19:08:31.684Z,99999.31
2022-12-28T19:11:01.832Z,99964.06
2022-12-28T19:13:30.298Z,99957.28
2022-12-28T19:15:58.384Z,99962.19
2022-12-28T19:18:26.518Z,99954.91
2022-12-28T19:20:58.048Z,99957.44
2022-12-28T19:23:26.696Z,99963.19
2022-12-28T19:25:59.519Z,99948.97
2022-12-28T19:28:28.914Z,99936.75
2022-12-28T19:31:02.660Z,99933.72
2022-12-28T19:33:32.647Z,99943.00
2022-12-28T19:36:00.756Z,99933.03
2022-12-28T19:38:29.265Z,99943.19
2022-12-28T19:40:57.639Z,99919.31
2022-12-28T19:43:25.818Z,99920.16
2022-12-28T19:46:02.397Z,99931.72
2022-12-28T19:48:30.561Z,99911.19
2022-12-28T19:50:59.197Z,99923.69
2022-12-28T19:53:28.623Z,99911.53
2022-12-28T19:56:00.178Z,99920.84
2022-12-28T19:58:28.146Z,99914.91
2022-12-28T20:01:04.931Z,99916.50
2022-12-28T20:03:32.948Z,99908.06
2022-12-28T20:06:07.344Z,99907.41
2022-12-28T20:08:35.896Z,99908.78
2022-12-28T20:11:04.725Z,99897.38
2022-12-28T20:13:33.736Z,99907.06
2022-12-28T20:16:03.488Z,99901.63
2022-12-28T20:18:31.808Z,99880.25
2022-12-28T20:21:19.177Z,99894.44
2022-12-28T20:23:49.160Z,99900.44
2022-12-28T20:26:18.180Z,99889.38
2022-12-28T20:28:46.335Z,99894.13
2022-12-28T20:31:16.242Z,99892.13
2022-12-28T20:33:45.121Z,99878.06
2022-12-28T20:36:15.642Z,99902.44
2022-12-28T20:38:44.323Z,99888.66
2022-12-28T20:41:35.492Z,99872.56
2022-12-28T20:44:05.376Z,99875.81
2022-12-28T20:46:35.433Z,99878.03
2022-12-28T20:49:03.695Z,99870.53
2022-12-28T20:51:31.894Z,99862.25
2022-12-28T20:53:59.834Z,99869.00
2022-12-28T20:56:28.104Z,99855.91
2022-12-28T20:58:56.856Z,99844.34
2022-12-28T21:01:25.069Z,99863.34
2022-12-28T21:03:54.450Z,99845.91
2022-12-28T21:06:22.514Z,99847.78
2022-12-28T21:08:50.573Z,99862.50
2022-12-28T21:11:18.778Z,99856.00
2022-12-28T21:13:46.804Z,99839.53
2022-12-28T21:16:15.936Z,99860.56
2022-12-28T21:18:44.200Z,99844.91
2022-12-28T21:21:17.110Z,99847.31
2022-12-28T21:23:45.296Z,99848.19
2022-12-28T21:26:15.445Z,99861.69
2022-12-28T21:28:43.987Z,99827.00
2022-12-28T21:31:12.544Z,99835.16
2022-12-28T21:33:41.281Z,99818.19
2022-12-28T21:36:13.848Z,99827.72
2022-12-28T21:38:44.170Z,99825.94
2022-12-28T21:41:14.330Z,99830.69
2022-12-28T21:43:43.136Z,99809.59
2022-12-28T21:46:13.947Z,99812.63
2022-12-28T21:48:42.274Z,99828.13
2022-12-28T21:51:31.584Z,99814.91
2022-12-28T21:54:02.727Z,99823.13
2022-12-28T21:56:31.960Z,99823.84
2022-12-28T21:59:00.278Z,99809.13
2022-12-28T22:01:46.794Z,99810.31
2022-12-28T22:04:34.590Z,99820.31
2022-12-28T22:07:03.325Z,99813.38
2022-12-28T22:09:51.982Z,99814.59
2022-12-28T22:12:38.472Z,99822.50
2022-12-28T22:15:27.793Z,99820.53
2022-12-28T22:17:58.852Z,99821.13
2022-12-28T22:20:28.678Z,99818.50
2022-12-28T22:23:00.422Z,99809.41
2022-12-28T22:25:31.171Z,99826.56
2022-12-28T22:28:00.151Z,99796.28
2022-12-28T22:30:29.885Z,99812.88
2022-12-28T22:32:58.474Z,99825.81
2022-12-28T22:35:26.803Z,99804.97
2022-12-28T22:37:54.895Z,99794.97
2022-12-28T22:40:22.942Z,99809.13
2022-12-28T22:42:52.565Z,99791.13
2022-12-28T22:45:22.001Z,99810.63
2022-12-28T22:47:50.707Z,99778.56
2022-12-28T22:50:19.911Z,99786.06
2022-12-28T22:52:48.078Z,99786.06
2022-12-28T22:55:16.896Z,99767.94
2022-12-28T22:57:45.178Z,99762.00
2022-12-28T23:00:16.163Z,99778.91
2022-12-28T23:02:44.946Z,99772.69
2022-12-28T23:05:13.490Z,99755.56
2022-12-28T23:07:41.416Z,99750.31
2022-12-28T23:10:10.593Z,99754.34
2022-12-28T23:12:38.768Z,99755.34
2022-12-28T23:15:19.065Z,99727.25
2022-12-28T23:17:50.207Z,99741.88
2022-12-28T23:20:36.126Z,99730.59
2022-12-28T23:23:22.123Z,99732.38
2022-12-28T23:26:07.502Z,99730.31
2022-12-28T23:28:36.788Z,99746.63
2022-12-28T23:31:05.368Z,99736.44
2022-12-28T23:33:36.521Z,99729.59
2022-12-28T23:36:05.444Z,99726.50
2022-12-28T23:38:34.251Z,99722.66
2022-12-28T23:41:24.243Z,99717.09
2022-12-28T23:43:52.166Z,99709.34
2022-12-28T23:46:20.223Z,99725.34
2022-12-28T23:48:49.453Z,99702.03
2022-12-28T23:51:18.018Z,99698.72
2022-12-28T23:53:46.019Z,99698.34
2022-12-28T23:56:14.035Z,99695.13
2022-12-28T23:58:41.886Z,99700.66
